Time;durP1;ratioP1;P1;durP2;ratioP2;P2;SDS_P1;SDS_P2;PMS_P1;PMS_P2;Temp;Humidity;BMP_temperature;BMP_pressure;BME280_temperature;BME280_humidity;BME280_pressure;Samples;Min_cycle;Max_cycle;Signal;HPM_P1;HPM_P2
2021/01/23 00:00:09;;;;;;;16.48;14.77;;;5.00;82.10;6.80;98539.00;;;;4902451;29;20560;-79
2021/01/23 00:02:40;;;;;;;17.10;15.30;;;5.10;81.70;6.70;98544.00;;;;4899645;29;20443;-77
2021/01/23 00:05:09;;;;;;;16.17;14.57;;;5.10;81.50;6.80;98535.00;;;;4916536;29;20446;-77
2021/01/23 00:07:36;;;;;;;17.75;15.20;;;5.10;81.70;6.90;98535.00;;;;4898495;29;20434;-77
2021/01/23 00:10:06;;;;;;;18.80;16.50;;;5.10;82.10;6.90;98545.00;;;;4899877;29;20443;-77
2021/01/23 00:12:34;;;;;;;17.33;15.52;;;5.20;82.40;6.90;98547.00;;;;4897715;29;20522;-77
2021/01/23 00:15:01;;;;;;;17.45;15.75;;;5.20;81.80;217.30;159651.00;;;;4914836;29;20514;-79
2021/01/23 00:17:29;;;;;;;18.08;16.27;;;5.20;81.50;6.90;98540.00;;;;4914478;29;20435;-77
2021/01/23 00:19:56;;;;;;;18.75;16.85;;;5.20;81.40;6.90;98547.00;;;;4897716;29;20493;-77
2021/01/23 00:22:24;;;;;;;18.27;16.48;;;5.30;81.40;7.00;98552.00;;;;4913511;29;20529;-79
2021/01/23 00:24:51;;;;;;;17.25;15.45;;;5.40;81.60;7.00;98564.00;;;;4915122;29;20517;-79
2021/01/23 00:27:19;;;;;;;17.70;16.00;;;5.30;81.60;7.00;98555.00;;;;4902548;29;20437;-79
2021/01/23 00:29:46;;;;;;;18.48;16.58;;;5.50;81.50;6.90;98556.00;;;;4917497;29;20484;-78
2021/01/23 00:32:14;;;;;;;18.48;16.58;;;5.30;80.90;6.90;98557.00;;;;4907363;29;20473;-78
2021/01/23 00:34:43;;;;;;;17.70;16.00;;;5.20;81.60;6.90;98580.00;;;;4901854;29;20599;-79
2021/01/23 00:37:10;;;;;;;17.90;16.15;;;5.10;81.80;7.00;98565.00;;;;4898554;29;20865;-79
2021/01/23 00:39:38;;;;;;;18.60;16.90;;;5.20;82.10;7.00;98570.00;;;;4898494;29;20461;-79
2021/01/23 00:42:06;;;;;;;17.77;15.98;;;5.20;82.00;7.00;98588.00;;;;4902119;29;20432;-79
2021/01/23 00:44:34;;;;;;;16.73;15.13;;;5.20;81.50;7.00;98590.00;;;;4904120;29;20849;-80
2021/01/23 00:47:01;;;;;;;17.08;15.27;;;5.30;80.80;7.00;67814.00;;;;4906004;29;20502;-79
2021/01/23 00:49:29;;;;;;;18.30;16.30;;;5.30;80.90;7.10;98578.00;;;;4902908;29;20464;-79
2021/01/23 00:51:56;;;;;;;17.77;16.02;;;5.40;81.00;7.10;98599.00;;;;4892918;29;20440;-79
2021/01/23 00:54:24;;;;;;;18.60;16.05;;;5.40;81.20;7.10;98585.00;;;;4908488;29;20651;-80
2021/01/23 00:56:51;;;;;;;19.60;17.60;;;5.40;80.90;7.10;98584.00;;;;4902595;29;20506;-78
2021/01/23 00:59:19;;;;;;;18.75;16.83;;;5.40;80.60;7.00;98581.00;;;;4918707;29;20431;-80
2021/01/23 01:01:48;;;;;;;18.48;16.67;;;5.40;80.70;7.00;67815.00;;;;4911188;29;20439;-80
2021/01/23 01:04:33;;;;;;;20.30;18.20;;;5.40;80.30;6.90;98603.00;;;;4913449;29;20439;-80
2021/01/23 01:07:00;;;;;;;20.20;18.20;;;5.40;80.00;6.90;98611.00;;;;4903269;29;20500;-80
2021/01/23 01:09:28;;;;;;;19.25;17.25;;;5.40;80.40;6.90;98603.00;;;;4918981;29;20477;-80
2021/01/23 01:11:55;;;;;;;20.25;18.20;;;5.30;80.50;6.90;98593.00;;;;4904776;29;20431;-81
2021/01/23 01:14:23;;;;;;;19.48;17.40;;;5.30;80.20;6.90;98538.00;;;;4902194;29;20874;-80
2021/01/23 01:16:51;;;;;;;19.25;17.25;;;5.40;80.10;6.70;98609.00;;;;4901991;29;20441;-80
2021/01/23 01:19:19;;;;;;;19.02;17.13;;;5.30;79.80;6.60;98600.00;;;;4902405;29;20486;-81
2021/01/23 01:21:46;;;;;;;19.30;17.40;;;5.30;79.80;6.70;98589.00;;;;4904964;29;20512;-82
2021/01/23 01:24:14;;;;;;;19.85;17.48;;;5.20;80.40;6.60;98618.00;;;;4918634;29;20517;-82
2021/01/23 01:26:42;;;;;;;19.50;17.45;;;5.30;80.80;6.60;98612.00;;;;4903408;29;20437;-80
2021/01/23 01:29:09;;;;;;;19.75;17.65;;;5.20;80.90;6.70;98617.00;;;;4900765;29;20450;-81
2021/01/23 01:31:37;;;;;;;20.98;18.77;;;5.20;81.70;6.70;98638.00;;;;4921689;29;20955;-80
2021/01/23 01:34:05;;;;;;;20.52;18.42;;;5.10;81.90;6.80;98630.00;;;;4904739;29;20425;-79
2021/01/23 01:36:33;;;;;;;20.85;18.35;;;5.10;81.80;6.80;98618.00;;;;4905328;29;20433;-79
2021/01/23 01:39:00;;;;;;;20.93;18.73;;;5.10;81.90;6.70;67726.00;;;;4907902;29;20521;-80
2021/01/23 01:41:27;;;;;;;21.25;18.95;;;5.10;82.00;6.60;98621.00;;;;4907368;29;20469;-80
2021/01/23 01:43:55;;;;;;;21.77;19.42;;;5.20;82.10;6.60;98632.00;;;;4915208;29;20435;-80
2021/01/23 01:46:22;;;;;;;21.70;19.40;;;5.00;82.40;6.70;98625.00;;;;4920857;29;20447;-79
2021/01/23 01:48:50;;;;;;;22.00;19.70;;;5.00;83.10;6.70;98629.00;;;;4905108;29;20606;-79
2021/01/23 01:51:18;;;;;;;22.13;19.83;;;5.00;83.40;6.80;98624.00;;;;4905755;29;20513;-81
2021/01/23 01:53:46;;;;;;;21.75;19.45;;;5.10;83.00;6.80;98623.00;;;;4910663;29;20423;-83
2021/01/23 01:56:13;;;;;;;21.20;19.00;;;5.10;83.40;6.80;98630.00;;;;4916052;29;20435;-82
2021/01/23 01:58:41;;;;;;;22.30;20.00;;;5.10;82.30;6.80;98621.00;;;;4916568;29;20451;-82
2021/01/23 02:01:08;;;;;;;20.98;18.70;;;5.10;82.30;6.80;98649.00;;;;4908563;29;20486;-81
2021/01/23 02:04:04;;;;;;;21.75;19.45;;;5.20;82.30;6.80;67769.00;;;;4907425;29;20431;-81
2021/01/23 02:06:46;;;;;;;22.38;19.95;;;5.20;82.50;6.90;98646.00;;;;4923309;29;20431;-80
2021/01/23 02:09:27;;;;;;;22.30;19.90;;;5.10;82.90;7.00;98627.00;;;;4907856;29;20440;-80
2021/01/23 02:12:05;;;;;;;21.15;18.95;;;5.20;83.00;217.30;159702.00;;;;4908082;29;20505;-82
2021/01/23 02:14:54;;;;;;;21.65;19.35;;;5.30;82.70;7.00;98645.00;;;;4910051;29;20823;-82
2021/01/23 02:17:34;;;;;;;22.60;20.17;;;5.30;82.70;7.00;98658.00;;;;4926731;29;20433;-82
2021/01/23 02:20:19;;;;;;;26.67;21.73;;;5.30;83.50;7.00;98654.00;;;;4915533;29;20435;-80
2021/01/23 02:23:11;;;;;;;24.77;22.00;;;5.20;83.40;7.00;98648.00;;;;4909176;29;20533;-79
2021/01/23 02:25:58;;;;;;;23.23;20.73;;;5.20;83.60;6.90;98651.00;;;;4907417;29;20562;-79
2021/01/23 02:28:44;;;;;;;22.77;20.37;;;5.10;83.20;6.80;98661.00;;;;4918794;29;20950;-80
2021/01/23 02:31:16;;;;;;;23.50;19.70;;;5.20;83.00;217.30;159577.00;;;;4904847;29;20425;-81
2021/01/23 02:33:49;;;;;;;22.20;19.95;;;5.20;82.20;6.60;67720.00;;;;4903698;29;20430;-80
2021/01/23 02:36:19;;;;;;;22.58;20.08;;;5.20;81.40;6.60;98656.00;;;;4910661;29;20902;-80
2021/01/23 02:38:48;;;;;;;21.02;18.70;;;5.10;81.70;6.60;98650.00;;;;4922138;28;20467;-81
2021/01/23 02:41:17;;;;;;;21.70;19.50;;;5.10;81.60;6.50;98668.00;;;;4923103;28;20410;-82
2021/01/23 02:43:46;;;;;;;21.25;18.95;;;5.10;81.20;6.60;98671.00;;;;4931879;28;20475;-80
2021/01/23 02:46:16;;;;;;;22.13;19.33;;;5.10;81.10;6.60;98675.00;;;;4924168;29;20534;-79
2021/01/23 02:48:45;;;;;;;20.23;18.20;;;5.10;81.10;6.60;98674.00;;;;4925594;29;20956;-80
2021/01/23 02:51:23;;;;;;;20.48;18.38;;;5.10;81.30;6.50;98664.00;;;;4908600;29;20458;-79
2021/01/23 02:53:53;;;;;;;20.30;18.13;;;5.10;81.30;6.50;98646.00;;;;4925509;29;20460;-80
2021/01/23 02:56:24;;;;;;;21.33;18.70;;;5.10;81.50;6.50;98668.00;;;;4920892;28;20492;-84
2021/01/23 02:58:53;;;;;;;22.13;19.05;;;5.10;81.20;6.60;98679.00;;;;4945860;28;20457;-81
2021/01/23 03:01:23;;;;;;;20.60;18.50;;;5.10;81.50;6.70;98683.00;;;;4925103;29;20430;-81
2021/01/23 03:03:55;;;;;;;20.45;18.35;;;5.10;81.60;6.70;98682.00;;;;4923766;29;20438;-80
2021/01/23 03:06:23;;;;;;;20.00;17.90;;;5.10;81.50;6.70;98697.00;;;;4911214;29;20445;-82
2021/01/23 03:08:51;;;;;;;22.83;19.25;;;5.10;81.10;6.80;98705.00;;;;4912187;29;20429;-82
2021/01/23 03:11:18;;;;;;;21.23;18.60;;;5.10;82.20;6.90;98699.00;;;;4913797;29;20434;-78
2021/01/23 03:13:46;;;;;;;21.15;18.92;;;5.10;82.50;6.90;98696.00;;;;4940413;28;20514;-80
2021/01/23 03:16:13;;;;;;;22.90;19.58;;;5.20;82.40;6.90;98699.00;;;;4922033;29;20439;-80
2021/01/23 03:18:41;;;;;;;21.98;19.13;;;5.20;82.20;6.90;98715.00;;;;4943384;28;20506;-79
2021/01/23 03:21:09;;;;;;;20.30;18.20;;;5.30;82.30;7.00;98710.00;;;;4921762;29;20444;-80
2021/01/23 03:23:36;;;;;;;20.42;18.23;;;5.20;82.30;7.00;98705.00;;;;4910434;29;20422;-82
2021/01/23 03:26:03;;;;;;;20.50;18.30;;;5.20;81.90;6.90;98721.00;;;;4908439;29;20922;-81
2021/01/23 03:28:31;;;;;;;20.80;18.60;;;5.20;81.50;7.00;67797.00;;;;4907370;29;20443;-80
2021/01/23 03:30:58;;;;;;;20.27;18.08;;;5.20;82.10;7.00;98712.00;;;;4907092;29;20450;-81
2021/01/23 03:33:26;;;;;;;16.98;15.20;;;5.30;81.80;6.90;98725.00;;;;4905756;29;20501;-81
2021/01/23 03:35:54;;;;;;;17.40;15.60;;;5.20;80.70;6.50;67779.00;;;;4903458;29;21095;-81
2021/01/23 03:38:21;;;;;;;20.63;18.42;;;5.20;80.60;6.80;98731.00;;;;4908246;29;20454;-79
2021/01/23 03:40:52;;;;;;;26.33;23.30;;;5.10;80.40;6.60;98732.00;;;;4911700;28;20983;-82
2021/01/23 03:43:19;;;;;;;26.95;23.70;;;4.90;81.40;6.50;98736.00;;;;4920615;29;20460;-82
2021/01/23 03:45:47;;;;;;;26.02;23.20;;;4.80;83.30;6.50;98732.00;;;;4920224;29;20492;-82
2021/01/23 03:48:14;;;;;;;16.83;15.07;;;4.80;83.70;6.50;98723.00;;;;4906630;29;20436;-81
2021/01/23 03:50:42;;;;;;;22.40;20.05;;;5.00;83.10;6.50;98715.00;;;;4925445;29;20531;-80
2021/01/23 03:53:10;;;;;;;24.13;21.53;;;5.00;82.60;52.70;159494.00;;;;4908888;29;20505;-80
2021/01/23 03:55:37;;;;;;;24.95;21.67;;;4.90;82.90;6.60;98743.00;;;;4905945;29;20519;-81
2021/01/23 03:58:04;;;;;;;23.77;21.20;;;5.00;83.50;6.60;98735.00;;;;4911854;29;20429;-82
2021/01/23 04:00:32;;;;;;;24.60;20.80;;;4.90;83.20;6.50;67702.00;;;;4905510;29;20443;-82
2021/01/23 04:03:00;;;;;;;21.70;19.40;;;4.90;82.90;6.50;98737.00;;;;4905369;29;21487;-81
2021/01/23 04:05:27;;;;;;;18.38;16.48;;;4.90;82.70;6.40;98739.00;;;;4924150;29;20937;-80
2021/01/23 04:07:54;;;;;;;16.30;14.50;;;4.90;82.40;6.30;98743.00;;;;4905296;29;20555;-80
2021/01/23 04:10:22;;;;;;;14.48;12.98;;;4.90;81.20;6.40;98728.00;;;;4914715;29;20577;-80
2021/01/23 04:12:50;;;;;;;15.40;12.50;;;5.00;80.90;6.30;98721.00;;;;4922914;29;20436;-83
2021/01/23 04:15:17;;;;;;;14.50;13.00;;;5.00;80.00;6.20;98734.00;;;;4915823;29;20474;-81
2021/01/23 04:17:45;;;;;;;14.32;12.82;;;5.00;79.70;6.20;98720.00;;;;4905475;29;20435;-80
2021/01/23 04:20:13;;;;;;;13.87;12.37;;;5.00;79.90;6.10;98716.00;;;;4905784;29;20437;-80
2021/01/23 04:22:40;;;;;;;13.23;11.93;;;5.00;79.50;6.10;98702.00;;;;4919569;29;20449;-79
2021/01/23 04:25:09;;;;;;;13.23;11.35;;;5.00;79.50;6.20;98714.00;;;;4919081;29;21019;-80
2021/01/23 04:27:37;;;;;;;13.02;11.55;;;5.00;79.60;6.20;98715.00;;;;4903491;29;20449;-79
2021/01/23 04:30:07;;;;;;;13.50;12.20;;;5.00;79.70;6.10;98704.00;;;;4905423;29;20435;-80
2021/01/23 04:32:35;;;;;;;13.05;11.85;;;5.00;79.50;6.10;98708.00;;;;4917386;29;20438;-79
2021/01/23 04:35:04;;;;;;;12.70;11.40;;;4.90;79.50;6.10;98721.00;;;;4901044;29;20442;-80
2021/01/23 04:37:31;;;;;;;13.65;12.25;;;4.90;79.50;6.00;98707.00;;;;4913445;29;20802;-80
2021/01/23 04:39:59;;;;;;;12.77;11.50;;;4.90;79.50;6.00;98690.00;;;;4900591;29;20652;-80
2021/01/23 04:42:27;;;;;;;13.35;12.05;;;4.90;79.80;5.90;98698.00;;;;4917149;29;20425;-79
2021/01/23 04:44:55;;;;;;;13.70;12.30;;;4.80;79.90;5.90;98699.00;;;;4902240;29;20545;-81
2021/01/23 04:47:23;;;;;;;12.32;11.02;;;4.80;80.30;5.80;98687.00;;;;4899990;29;20935;-80
2021/01/23 04:49:50;;;;;;;13.18;11.77;;;4.70;80.30;5.70;98706.00;;;;4906095;29;20429;-80
2021/01/23 04:52:18;;;;;;;13.10;11.67;;;4.70;80.40;5.70;98702.00;;;;4924035;29;20482;-80
2021/01/23 04:54:45;;;;;;;12.18;10.95;;;4.70;80.80;5.70;98702.00;;;;4909973;29;20531;-83
2021/01/23 04:57:12;;;;;;;13.18;11.52;;;4.60;80.80;5.70;98698.00;;;;4902536;29;20483;-79
2021/01/23 04:59:40;;;;;;;15.57;12.00;;;4.60;81.00;5.70;67513.00;;;;4903660;29;20468;-80
2021/01/23 05:02:19;;;;;;;13.10;11.63;;;4.60;80.80;5.70;98705.00;;;;4901506;29;20524;-81
2021/01/23 05:04:51;;;;;;;14.68;12.93;;;4.60;80.80;5.60;98708.00;;;;4915153;29;20470;-81
2021/01/23 05:07:30;;;;;;;13.82;12.43;;;4.60;80.90;5.70;98705.00;;;;4920943;29;20544;-82
2021/01/23 05:09:58;;;;;;;13.75;12.43;;;4.50;81.60;5.70;98708.00;;;;4921837;28;20657;-81
2021/01/23 05:12:41;;;;;;;12.88;11.43;;;4.50;81.60;5.70;98721.00;;;;4922941;28;20446;-80
2021/01/23 05:15:11;;;;;;;14.30;12.50;;;4.50;82.00;5.80;98712.00;;;;4905592;29;20523;-79
2021/01/23 05:17:54;;;;;;;13.90;12.50;;;4.50;82.10;5.90;98708.00;;;;4930341;29;20506;-81
2021/01/23 05:20:46;;;;;;;13.32;11.93;;;4.50;82.20;5.90;98706.00;;;;4921257;29;20440;-80
2021/01/23 05:23:16;;;;;;;13.25;11.85;;;4.50;82.30;5.90;98713.00;;;;4930733;29;20437;-81
2021/01/23 05:25:50;;;;;;;13.68;12.27;;;4.50;82.30;5.80;98723.00;;;;4916438;29;20461;-80
2021/01/23 05:28:29;;;;;;;12.98;11.68;;;4.50;82.30;5.80;98709.00;;;;4921599;29;20545;-79
2021/01/23 05:30:58;;;;;;;13.80;12.27;;;4.50;82.00;5.80;98744.00;;;;4936506;28;20511;-78
2021/01/23 05:33:28;;;;;;;13.88;12.38;;;4.40;82.00;5.70;98727.00;;;;4927995;28;20441;-79
2021/01/23 05:35:58;;;;;;;13.02;11.73;;;4.50;82.00;5.70;98738.00;;;;4942970;28;20513;-79
2021/01/23 05:38:29;;;;;;;13.10;11.10;;;4.50;81.90;5.70;98727.00;;;;4950140;28;20429;-79
2021/01/23 05:41:10;;;;;;;13.80;12.32;;;4.40;81.90;5.70;98719.00;;;;4929396;28;20480;-81
2021/01/23 05:43:43;;;;;;;14.02;11.40;;;4.40;81.80;5.60;98724.00;;;;4933482;29;20453;-81
2021/01/23 05:46:14;;;;;;;14.23;12.02;;;4.30;82.50;52.70;159133.00;;;;4901404;29;20521;-80
2021/01/23 05:48:45;;;;;;;13.70;12.30;;;4.30;82.80;5.70;98731.00;;;;4910967;29;20454;-80
2021/01/23 05:51:14;;;;;;;15.50;12.10;;;4.30;82.80;5.80;67539.00;;;;4907131;29;20436;-80
2021/01/23 05:53:42;;;;;;;14.00;12.18;;;4.30;82.80;5.80;98729.00;;;;4911093;29;20451;-81
2021/01/23 05:56:12;;;;;;;14.17;12.67;;;4.20;82.70;5.80;98716.00;;;;4910319;29;20438;-81
2021/01/23 05:58:42;;;;;;;13.80;12.30;;;4.20;83.10;5.80;98701.00;;;;4914456;29;20433;-80
2021/01/23 06:01:13;;;;;;;15.07;12.50;;;4.30;83.30;5.80;98737.00;;;;4910143;29;21126;-80
2021/01/23 06:03:45;;;;;;;13.90;12.38;;;4.20;83.10;5.80;98727.00;;;;4909499;29;20442;-81
2021/01/23 06:06:17;;;;;;;14.50;12.85;;;4.30;83.10;5.70;98719.00;;;;4908994;29;20434;-80
2021/01/23 06:08:46;;;;;;;16.13;12.50;;;4.20;83.00;5.70;98703.00;;;;4908529;29;20441;-81
2021/01/23 06:11:47;;;;;;;14.93;12.25;;;4.20;83.20;5.60;98717.00;;;;4914226;29;20438;-81
2021/01/23 06:14:35;;;;;;;13.38;12.07;;;4.10;82.70;5.60;98708.00;;;;4907306;29;20467;-81
2021/01/23 06:17:04;;;;;;;14.40;12.18;;;4.00;82.90;5.60;98729.00;;;;4915733;29;20441;-80
2021/01/23 06:19:43;;;;;;;14.65;12.70;;;4.00;83.10;5.60;98715.00;;;;4909090;29;20435;-80
2021/01/23 06:22:11;;;;;;;14.95;13.10;;;4.00;83.30;5.50;98707.00;;;;4906000;29;20497;-81
2021/01/23 06:24:56;;;;;;;14.60;13.10;;;4.00;83.80;5.50;98706.00;;;;4906057;29;20463;-79
2021/01/23 06:27:48;;;;;;;15.20;13.02;;;3.90;83.40;5.40;98708.00;;;;4923003;29;20467;-80
2021/01/23 06:30:30;;;;;;;13.68;11.38;;;3.90;83.50;5.30;98601.00;;;;4928399;29;20441;-80
2021/01/23 06:32:59;;;;;;;14.30;11.65;;;3.90;83.30;5.20;98709.00;;;;4914234;29;20433;-80
2021/01/23 06:35:27;;;;;;;15.20;12.00;;;3.90;83.00;5.10;98720.00;;;;4912863;29;20438;-79
2021/01/23 06:38:13;;;;;;;13.95;11.40;;;3.80;83.00;5.00;98704.00;;;;4912345;29;20446;-81
2021/01/23 06:40:40;;;;;;;13.50;11.90;;;3.80;83.00;5.00;98730.00;;;;4909693;29;20501;-81
2021/01/23 06:43:08;;;;;;;13.32;11.95;;;3.80;83.20;5.00;98751.00;;;;4916105;29;20513;-81
2021/01/23 06:45:37;;;;;;;13.90;12.45;;;3.80;83.30;5.00;98763.00;;;;4914945;29;20437;-81
2021/01/23 06:48:06;;;;;;;13.15;11.75;;;3.70;83.30;5.00;98773.00;;;;4922304;29;20425;-81
2021/01/23 06:50:39;;;;;;;14.67;12.07;;;3.80;83.40;5.00;98758.00;;;;4923231;28;20515;-80
2021/01/23 06:53:11;;;;;;;13.70;12.20;;;3.80;83.30;4.80;98767.00;;;;4929904;28;20625;-80
2021/01/23 06:55:48;;;;;;;14.43;13.02;;;3.80;83.30;4.80;98723.00;;;;4929753;28;20435;-79
2021/01/23 06:58:27;;;;;;;17.05;13.20;;;3.80;83.20;4.80;98559.00;;;;4940485;28;20473;-80
2021/01/23 07:00:56;;;;;;;14.57;13.02;;;3.80;83.30;4.90;98733.00;;;;4924309;29;20510;-80
2021/01/23 07:03:24;;;;;;;14.25;12.75;;;3.80;83.40;4.80;98755.00;;;;4925517;29;20430;-80
2021/01/23 07:05:55;;;;;;;14.57;13.07;;;3.70;83.50;4.90;98759.00;;;;4917443;29;20444;-80
2021/01/23 07:08:28;;;;;;;15.63;13.40;;;3.80;83.50;52.70;158780.00;;;;4934793;29;20441;-80
2021/01/23 07:11:13;;;;;;;15.68;13.70;;;3.70;83.40;4.70;98758.00;;;;4920813;29;20502;-80
2021/01/23 07:14:01;;;;;;;16.33;14.73;;;3.70;83.40;4.70;98758.00;;;;4918974;29;20488;-80
2021/01/23 07:16:31;;;;;;;16.50;14.73;;;3.70;84.10;4.70;98750.00;;;;4912099;29;20476;-80
2021/01/23 07:19:01;;;;;;;15.95;14.25;;;3.70;83.50;4.70;98743.00;;;;4929706;29;20438;-80
2021/01/23 07:21:32;;;;;;;16.13;14.43;;;3.70;83.70;4.70;98735.00;;;;4915836;29;20439;-80
2021/01/23 07:23:59;;;;;;;17.80;15.70;;;3.70;83.80;4.70;98737.00;;;;4915937;29;20562;-81
2021/01/23 07:26:27;;;;;;;17.05;15.20;;;3.70;83.80;4.90;98758.00;;;;4921662;29;21273;-80
2021/01/23 07:28:56;;;;;;;18.70;15.27;;;3.60;83.90;4.80;98737.00;;;;4920750;29;20426;-81
2021/01/23 07:31:26;;;;;;;21.08;16.75;;;3.70;83.90;4.80;98746.00;;;;4922482;29;20448;-79
2021/01/23 07:33:55;;;;;;;21.05;16.40;;;3.70;83.90;217.30;158742.00;;;;4938106;29;20549;-80
2021/01/23 07:36:35;;;;;;;18.80;16.58;;;3.70;83.70;4.90;67333.00;;;;4928163;29;20469;-81
2021/01/23 07:39:08;;;;;;;20.43;16.60;;;3.70;83.70;4.90;98739.00;;;;4929653;29;20501;-81
2021/01/23 07:41:38;;;;;;;20.15;16.83;;;3.70;83.70;4.90;98753.00;;;;4910401;29;20456;-79
2021/01/23 07:44:08;;;;;;;22.67;17.08;;;3.70;83.50;4.90;98750.00;;;;4937936;29;20431;-81
2021/01/23 07:46:39;;;;;;;19.50;16.20;;;3.80;83.70;4.80;98742.00;;;;4928185;29;20455;-81
2021/01/23 07:49:11;;;;;;;19.77;17.30;;;3.70;83.60;217.30;158758.00;;;;4927425;29;20409;-80
2021/01/23 07:51:39;;;;;;;19.80;17.70;;;3.70;83.40;4.80;98744.00;;;;4926264;29;20429;-80
2021/01/23 07:54:11;;;;;;;20.85;17.02;;;3.70;83.40;4.90;98746.00;;;;4946192;28;20435;-80
2021/01/23 07:56:51;;;;;;;20.10;16.75;;;3.80;83.30;5.00;98753.00;;;;4939552;28;20508;-79
2021/01/23 07:59:19;;;;;;;21.73;17.70;;;3.70;83.40;5.00;98744.00;;;;4932883;29;20425;-80
2021/01/23 08:01:46;;;;;;;19.45;16.50;;;3.80;83.50;5.00;98753.00;;;;4939358;28;20523;-79
2021/01/23 08:04:31;;;;;;;19.52;16.60;;;3.90;83.30;5.00;98741.00;;;;4921270;28;20441;-80
2021/01/23 08:07:26;;;;;;;19.02;17.02;;;3.90;82.60;5.10;98735.00;;;;4918967;29;20507;-80
2021/01/23 08:10:21;;;;;;;19.33;16.58;;;4.00;82.60;5.40;98732.00;;;;4918759;29;20457;-80
2021/01/23 08:13:03;;;;;;;19.17;17.17;;;4.10;82.60;5.50;98734.00;;;;4929548;29;20433;-79
2021/01/23 08:15:32;;;;;;;20.35;17.13;;;4.20;82.00;5.50;98740.00;;;;4898999;29;20447;-80
2021/01/23 08:18:01;;;;;;;19.42;16.90;;;4.30;81.60;5.60;98738.00;;;;4918775;29;20481;-79
2021/01/23 08:20:35;;;;;;;19.17;17.17;;;4.40;82.00;5.50;98742.00;;;;4927439;29;20430;-79
2021/01/23 08:23:09;;;;;;;20.00;17.90;;;4.30;81.60;5.50;98752.00;;;;4922408;29;20475;-80
2021/01/23 08:25:39;;;;;;;19.45;17.30;;;4.30;81.90;5.50;98748.00;;;;4909361;29;20527;-81
2021/01/23 08:28:08;;;;;;;21.67;16.80;;;4.40;82.10;5.60;98757.00;;;;4910374;29;20565;-81
2021/01/23 08:30:36;;;;;;;19.08;17.17;;;4.40;82.10;5.70;98726.00;;;;4927453;29;20799;-80
2021/01/23 08:33:05;;;;;;;20.00;17.90;;;4.50;82.20;5.80;98750.00;;;;4921652;29;20429;-80
2021/01/23 08:35:36;;;;;;;18.90;16.90;;;4.50;81.60;5.90;98746.00;;;;4921663;29;20553;-82
2021/01/23 08:38:06;;;;;;;20.20;17.80;;;4.60;81.60;6.00;98721.00;;;;4906343;29;20481;-80
2021/01/23 08:40:33;;;;;;;21.93;17.57;;;4.70;81.40;6.10;98721.00;;;;4907529;29;20502;-81
2021/01/23 08:43:01;;;;;;;19.13;17.13;;;4.70;81.40;6.20;98740.00;;;;4918818;29;20452;-83
2021/01/23 08:45:30;;;;;;;21.55;17.58;;;4.80;80.90;217.30;159310.00;;;;4913345;29;20429;-81
2021/01/23 08:47:58;;;;;;;20.73;18.20;;;4.80;80.70;6.10;98740.00;;;;4921666;29;20523;-82
2021/01/23 08:50:25;;;;;;;19.77;17.37;;;4.80;80.40;6.00;98742.00;;;;4918034;29;20438;-83
2021/01/23 08:52:52;;;;;;;23.00;17.40;;;4.80;80.40;6.10;98742.00;;;;4909446;29;20441;-82
2021/01/23 08:55:21;;;;;;;20.65;17.70;;;4.80;80.60;6.20;98720.00;;;;4933236;29;20435;-81
2021/01/23 08:57:48;;;;;;;20.58;17.65;;;4.90;80.50;217.30;159373.00;;;;4918099;29;20438;-84
2021/01/23 09:00:17;;;;;;;20.35;18.27;;;4.90;80.10;217.30;159395.00;;;;4923016;29;20468;-82
2021/01/23 09:02:44;;;;;;;19.15;17.15;;;5.00;80.00;6.50;98711.00;;;;4942399;29;20415;-81
2021/01/23 09:05:13;;;;;;;20.90;18.63;;;5.00;79.80;6.60;98696.00;;;;4917530;29;20428;-81
2021/01/23 09:07:40;;;;;;;19.10;17.05;;;5.10;79.20;6.90;98705.00;;;;4915335;29;20442;-85
2021/01/23 09:10:11;;;;;;;19.17;16.85;;;5.20;79.60;7.00;98713.00;;;;4924827;29;20517;-83
2021/01/23 09:12:40;;;;;;;18.50;16.53;;;5.30;78.80;217.30;159645.00;;;;4921078;29;20449;-81
2021/01/23 09:15:09;;;;;;;18.02;16.08;;;5.30;78.30;217.30;159635.00;;;;4922019;29;20492;-82
2021/01/23 09:17:38;;;;;;;17.50;15.63;;;5.40;77.90;7.10;98709.00;;;;4922244;29;20523;-82
2021/01/23 09:20:08;;;;;;;16.83;15.13;;;5.50;77.60;217.30;159750.00;;;;4907387;29;20938;-82
2021/01/23 09:22:36;;;;;;;19.43;16.30;;;5.50;77.10;7.10;98713.00;;;;4913572;29;20501;-83
2021/01/23 09:25:07;;;;;;;17.88;15.50;;;5.50;77.20;7.10;98709.00;;;;4924630;29;20464;-80
2021/01/23 09:27:34;;;;;;;17.27;15.52;;;5.50;78.10;217.30;159766.00;;;;4929903;29;20427;-82
2021/01/23 09:30:03;;;;;;;17.90;15.65;;;5.50;77.30;7.20;98708.00;;;;4938285;29;20432;-84
2021/01/23 09:32:31;;;;;;;17.83;15.93;;;5.50;77.20;7.10;98702.00;;;;4908782;29;20957;-84
2021/01/23 09:34:59;;;;;;;18.95;15.85;;;5.50;77.00;7.10;98708.00;;;;4908785;29;20998;-82
2021/01/23 09:37:26;;;;;;;19.53;17.20;;;5.50;77.10;7.10;67820.00;;;;4913090;29;20991;-82
2021/01/23 09:39:54;;;;;;;19.97;15.50;;;5.40;77.60;217.30;159673.00;;;;4925963;29;20624;-83
2021/01/23 09:42:21;;;;;;;17.20;15.40;;;5.40;77.40;7.00;67797.00;;;;4909875;29;20464;-83
2021/01/23 09:44:49;;;;;;;17.33;15.52;;;5.40;77.50;7.00;67804.00;;;;4906178;29;20498;-82
2021/01/23 09:47:18;;;;;;;17.40;15.70;;;5.50;77.90;52.70;159651.00;;;;4922807;29;20883;-82
2021/01/23 09:49:45;;;;;;;17.05;15.13;;;5.40;77.80;7.00;98706.00;;;;4920407;29;20513;-82
2021/01/23 09:52:13;;;;;;;16.75;15.05;;;5.40;78.00;7.10;67835.00;;;;4906094;29;20421;-82
2021/01/23 09:54:41;;;;;;;18.00;16.10;;;5.50;78.10;7.10;98702.00;;;;4905567;29;20435;-82
2021/01/23 09:57:09;;;;;;;16.50;14.80;;;5.50;77.80;7.00;98692.00;;;;4907286;29;20919;-82
2021/01/23 09:59:38;;;;;;;15.93;14.32;;;5.50;76.70;7.00;98709.00;;;;4905055;29;20994;-80
2021/01/23 10:02:06;;;;;;;19.23;15.57;;;5.50;76.70;7.00;98696.00;;;;4920508;29;20867;-83
2021/01/23 10:04:34;;;;;;;17.43;14.80;;;5.40;76.90;217.30;159704.00;;;;4920056;29;20846;-84
2021/01/23 10:07:01;;;;;;;16.85;15.25;;;5.50;77.20;7.10;98682.00;;;;4902531;29;20441;-83
2021/01/23 10:09:30;;;;;;;16.70;14.87;;;5.50;77.50;7.10;98691.00;;;;4904873;29;20561;-84
2021/01/23 10:11:57;;;;;;;16.65;14.95;;;5.50;77.40;7.10;98682.00;;;;4902483;29;21098;-83
2021/01/23 10:14:25;;;;;;;17.40;15.60;;;5.50;77.30;7.10;98701.00;;;;4920084;29;20470;-83
2021/01/23 10:16:52;;;;;;;17.95;16.05;;;5.50;77.50;7.10;98694.00;;;;4904006;29;20533;-82
2021/01/23 10:19:20;;;;;;;16.60;14.90;;;5.60;77.90;52.70;159657.00;;;;4922360;29;20479;-83
2021/01/23 10:21:49;;;;;;;17.77;15.63;;;5.50;77.20;217.30;159683.00;;;;4924224;29;20452;-81
2021/01/23 10:24:16;;;;;;;17.95;15.43;;;5.40;77.40;7.10;98683.00;;;;4924808;29;20429;-82
2021/01/23 10:26:43;;;;;;;18.33;15.67;;;5.50;78.20;7.20;98659.00;;;;4925684;29;20648;-83
2021/01/23 10:29:12;;;;;;;15.85;14.18;;;5.50;78.10;7.20;98681.00;;;;4924099;29;20435;-87
2021/01/23 10:31:39;;;;;;;16.85;14.90;;;5.60;77.60;7.20;98673.00;;;;4903815;29;20417;-82
2021/01/23 10:34:07;;;;;;;16.70;15.00;;;5.60;77.10;7.30;98663.00;;;;4906368;29;20872;-83
2021/01/23 10:36:34;;;;;;;16.77;15.05;;;5.60;77.40;7.40;98677.00;;;;4905361;29;20439;-81
2021/01/23 10:39:03;;;;;;;17.13;14.98;;;5.70;77.10;7.50;98649.00;;;;4921055;29;20425;-82
2021/01/23 10:41:34;;;;;;;16.77;14.90;;;5.70;77.20;7.60;98665.00;;;;4916693;29;20518;-83
2021/01/23 10:44:02;;;;;;;17.08;15.27;;;5.80;76.90;7.60;98659.00;;;;4910227;29;20459;-84
2021/01/23 10:46:29;;;;;;;17.27;15.48;;;5.80;76.30;7.50;98660.00;;;;4921762;29;20434;-82
2021/01/23 10:48:57;;;;;;;16.90;15.20;;;5.90;75.70;7.60;98644.00;;;;4908665;29;20481;-81
2021/01/23 10:51:25;;;;;;;18.70;15.88;;;5.90;76.00;7.60;98650.00;;;;4908936;29;20521;-86
2021/01/23 10:53:52;;;;;;;18.00;15.98;;;5.80;76.60;52.70;159944.00;;;;4908226;29;20430;-81
2021/01/23 10:56:20;;;;;;;17.90;16.00;;;5.80;76.40;217.30;159859.00;;;;4927919;29;20456;-82
2021/01/23 10:58:48;;;;;;;18.03;15.67;;;5.90;76.80;7.40;67888.00;;;;4909909;29;20544;-83
2021/01/23 11:01:15;;;;;;;18.17;16.10;;;5.80;76.30;7.30;98616.00;;;;4934996;29;20459;-85
2021/01/23 11:03:43;;;;;;;18.48;16.58;;;5.80;76.80;7.20;67853.00;;;;4921066;29;20463;-84
2021/01/23 11:06:11;;;;;;;17.90;16.00;;;5.70;77.40;7.30;98628.00;;;;4936637;29;20423;-83